Temp: 17.4°C   Baro: 1010.1mb
  Wind: 6.0mph   Dir: WNW (299°)
  Rain: 0.8mm (0.0mm/hr)
  Solar: 100W/m2  Hum: 91%
 
Bath Spa Weather Station Historical Data
Daily Summary for November 23, 2019 Units:  Metric    English   Both
Daily Weekly Monthly Yearly Custom
  High: Low: Average:
Temperature: 9.8 °C -17.8 °C 8.1 °C
Dew Point: 9 °C -17.8 °C 7.1 °C
Humidity: 96% % 89%
Wind Speed: 11.3km/h 0km/h 3.1km/h
Wind Gust: 30.6km/h - -
Wind- - ENE
Pressure: 999.2 hPa 0 hPa -
Precipitation: 2.79 mm    
Historical Graphs
 
 
Tabular Data for November 23, 2019
Time Temperature Dew Point Pressure Wind Wind Speed Wind Gust Humidity Rainfall Rate (Hourly) solar
00:04 8.4 °C 6.9 °C 989.4 hPa East 4.3 km/h 22.5 km/h 90% 0 mm 0 W/m2
00:09 8.4 °C 6.9 °C 989.4 hPa East 6.6 km/h 20.9 km/h 90% 0 mm 0 W/m2
00:14 8.4 °C 6.9 °C 989.1 hPa East 3.9 km/h 30.6 km/h 90% 0 mm 0 W/m2
00:19 8.4 °C 6.9 °C 989.1 hPa East 6.8 km/h 29 km/h 90% 0 mm 0 W/m2
00:24 8.4 °C 6.9 °C 989.4 hPa ESE 7.1 km/h 17.7 km/h 90% 0 mm 0 W/m2
00:29 8.4 °C 6.9 °C 989.4 hPa ESE 9.2 km/h 19.3 km/h 90% 0 mm 0 W/m2
00:34 8.4 °C 6.9 °C 989.4 hPa ESE 6.9 km/h 19.3 km/h 90% 0 mm 0 W/m2
00:39 8.4 °C 6.9 °C 989.1 hPa East 5.1 km/h 12.9 km/h 90% 0 mm 0 W/m2
00:44 8.4 °C 6.9 °C 989.1 hPa East 6.8 km/h 22.5 km/h 90% 0 mm 0 W/m2
00:49 8.4 °C 6.9 °C 989.1 hPa East 6.6 km/h 20.9 km/h 90% 0 mm 0 W/m2
00:54 8.4 °C 6.9 °C 989.1 hPa ESE 8.9 km/h 20.9 km/h 90% 0 mm 0 W/m2
00:59 8.4 °C 6.9 °C 989.1 hPa East 10 km/h 22.5 km/h 90% 0 mm 0 W/m2
01:04 8.4 °C 6.9 °C 989.1 hPa East 7.2 km/h 20.9 km/h 90% 0 mm 0 W/m2
01:09 8.4 °C 6.9 °C 989.1 hPa East 8.2 km/h 22.5 km/h 90% 0 mm 0 W/m2
01:14 8.5 °C 7 °C 989.1 hPa East 8.9 km/h 24.1 km/h 90% 0 mm 0 W/m2
01:19 8.5 °C 7 °C 989.1 hPa East 8.9 km/h 24.1 km/h 90% 0 mm 0 W/m2
01:24 8.5 °C 7 °C 988.7 hPa East 8.5 km/h 20.9 km/h 90% 0 mm 0 W/m2
01:29 8.5 °C 7 °C 988.7 hPa ENE 9.2 km/h 24.1 km/h 90% 0 mm 0 W/m2
01:34 8.4 °C 6.9 °C 988.7 hPa East 7.7 km/h 22.5 km/h 90% 0 mm 0 W/m2
01:39 8.4 °C 6.9 °C 988.7 hPa East 7.6 km/h 17.7 km/h 90% 0 mm 0 W/m2
01:44 8.4 °C 6.9 °C 988.7 hPa ENE 10.5 km/h 20.9 km/h 90% 0 mm 0 W/m2
01:49 8.4 °C 6.9 °C 988.7 hPa East 10.8 km/h 24.1 km/h 90% 0 mm 0 W/m2
01:54 8.4 °C 6.9 °C 988.7 hPa ENE 6.1 km/h 27.4 km/h 90% 0 mm 0 W/m2
01:59 8.4 °C 6.9 °C 988.7 hPa East 0.8 km/h 6.4 km/h 90% 0 mm 0 W/m2
02:04 8.4 °C 6.9 °C 988.7 hPa East 9.5 km/h 17.7 km/h 90% 0 mm 0 W/m2
02:09 8.4 °C 6.9 °C 988.7 hPa East 10.1 km/h 30.6 km/h 90% 0 mm 0 W/m2
02:14 8.5 °C 7 °C 988.7 hPa East 9.2 km/h 24.1 km/h 90% 0 mm 0 W/m2
02:19 8.5 °C 7 °C 988.7 hPa East 10.8 km/h 22.5 km/h 90% 0 mm 0 W/m2
02:24 8.5 °C 6.9 °C 988.7 hPa East 9.3 km/h 19.3 km/h 89.7% 0 mm 0 W/m2
02:29 8.5 °C 6.8 °C 988.7 hPa East 8.9 km/h 20.9 km/h 89% 0 mm 0 W/m2
02:34 8.5 °C 6.8 °C 988.7 hPa East 6.6 km/h 19.3 km/h 89.3% 0 mm 0 W/m2
02:39 8.5 °C 6.9 °C 988.7 hPa ENE 5.3 km/h 22.5 km/h 89.6% 0 mm 0 W/m2
02:44 8.5 °C 6.8 °C 988.7 hPa East 8.2 km/h 20.9 km/h 89.2% 0 mm 0 W/m2
02:49 8.5 °C 6.8 °C 988.7 hPa East 2.3 km/h 20.9 km/h 89.1% 0 mm 0 W/m2
02:54 8.5 °C 6.9 °C 988.7 hPa East 6.6 km/h 20.9 km/h 89.5% 0 mm 0 W/m2
02:59 8.6 °C 6.8 °C 988.7 hPa East 4.2 km/h 20.9 km/h 89% 0 mm 0 W/m2
03:00 8.6 °C 6.9 °C 988.7 hPa Calm   17.7 km/h 89% 0 mm 0 W/m2
07:13 -17.8 °C -17.8 °C 0 hPa Calm     % 0 mm W/m2
07:39 8.8 °C 7.2 °C 989.7 hPa ENE 1 km/h 1.6 km/h 90% 0 mm 0 W/m2
07:44 8.8 °C 7.2 °C 989.7 hPa Calm   4.8 km/h 90% 0 mm 0 W/m2
07:49 8.8 °C 7.2 °C 989.7 hPa Calm   3.2 km/h 90% 0 mm 0 W/m2
07:54 8.8 °C 7.2 °C 989.7 hPa Calm   3.2 km/h 90% 0 mm 0 W/m2
07:59 8.9 °C 7.3 °C 989.7 hPa Calm   1.6 km/h 90.2% 0 mm 5 W/m2
08:04 8.9 °C 7.4 °C 989.7 hPa Calm   1.6 km/h 90.5% 0 mm 5 W/m2
08:09 8.9 °C 7.4 °C 989.7 hPa Calm     90.4% 0 mm 7 W/m2
08:14 8.9 °C 7.4 °C 989.7 hPa Calm     90.7% 0 mm 9 W/m2
08:19 8.9 °C 7.5 °C 990.1 hPa Calm     91% 0 mm 11 W/m2
08:24 8.9 °C 7.6 °C 990.1 hPa Calm     91% 0 mm 12 W/m2
08:29 8.9 °C 7.6 °C 990.1 hPa Calm     91% 0 mm 16 W/m2
08:34 8.9 °C 7.5 °C 990.1 hPa Calm     91% 0.25 mm 25 W/m2
08:39 8.9 °C 7.5 °C 990.4 hPa Calm     91% 0.25 mm 44 W/m2
08:44 8.9 °C 7.5 °C 990.4 hPa Calm     91% 0.51 mm 44 W/m2
08:49 8.9 °C 7.6 °C 990.4 hPa Calm     91% 0.51 mm 51 W/m2
08:54 9 °C 7.6 °C 990.1 hPa Calm     91% 0.51 mm 60 W/m2
08:59 9.1 °C 7.7 °C 990.4 hPa Calm     91% 0.51 mm 49 W/m2
09:04 9.1 °C 7.9 °C 990.4 hPa Calm     92% 0.51 mm 35 W/m2
09:09 9.1 °C 7.9 °C 990.4 hPa Calm     92% 0.51 mm 26 W/m2
09:14 9.1 °C 7.9 °C 990.7 hPa Calm     92% 0.51 mm 25 W/m2
09:19 9.1 °C 7.8 °C 990.7 hPa Calm     92% 0.51 mm 26 W/m2
09:24 9.1 °C 7.9 °C 990.7 hPa Calm     92% 0.51 mm 28 W/m2
09:29 9.1 °C 7.9 °C 990.7 hPa Calm   1.6 km/h 92% 0.51 mm 16 W/m2
09:34 9.1 °C 7.9 °C 990.7 hPa Calm   1.6 km/h 92% 0.51 mm 14 W/m2
09:39 9.1 °C 7.9 °C 991.1 hPa Calm     92% 0.25 mm 19 W/m2
09:41 9.1 °C 7.9 °C 990.7 hPa Calm     92% 0.25 mm 19 W/m2
09:59 -17.8 °C -17.8 °C 0 hPa Calm     % 0 mm W/m2
10:19 -17.8 °C -17.8 °C 0 hPa Calm     % 0 mm W/m2
10:24 -17.8 °C -17.8 °C 0 hPa Calm     % 0 mm W/m2
10:25 -17.8 °C -17.8 °C 0 hPa Calm     % 0 mm W/m2
10:36 -17.8 °C -17.8 °C 0 hPa Calm     % 0 mm W/m2
11:04 -17.8 °C -17.8 °C 0 hPa Calm     % 0 mm W/m2
11:05 -17.8 °C -17.8 °C 0 hPa Calm     % 0 mm W/m2
11:39 -17.8 °C -17.8 °C 0 hPa Calm     % 0 mm W/m2
11:44 9.7 °C 8.8 °C 991.8 hPa East 1.4 km/h 12.9 km/h 94% 0.25 mm 49 W/m2
11:49 9.7 °C 8.8 °C 991.8 hPa East 6.8 km/h 17.7 km/h 94% 0 mm 60 W/m2
11:54 9.7 °C 8.8 °C 991.4 hPa East 7.7 km/h 20.9 km/h 94% 0 mm 32 W/m2
11:59 9.7 °C 8.8 °C 991.8 hPa East 3.4 km/h 20.9 km/h 94% 0 mm 40 W/m2
12:04 9.7 °C 8.8 °C 991.8 hPa NE 6 km/h 16.1 km/h 94% 0 mm 51 W/m2
12:09 9.7 °C 8.8 °C 991.8 hPa ENE 9 km/h 19.3 km/h 94% 0 mm 51 W/m2
12:14 9.7 °C 8.8 °C 991.8 hPa East 5.1 km/h 14.5 km/h 94% 0 mm 40 W/m2
12:19 9.7 °C 8.8 °C 991.8 hPa ENE 4.2 km/h 11.3 km/h 94% 0 mm 30 W/m2
12:24 9.7 °C 8.8 °C 992.1 hPa East 4.5 km/h 12.9 km/h 94% 0 mm 30 W/m2
12:29 9.7 °C 8.8 °C 992.1 hPa ESE 3.5 km/h 12.9 km/h 94% 0 mm 53 W/m2
12:34 9.7 °C 8.8 °C 992.1 hPa ESE 2.3 km/h 12.9 km/h 94% 0 mm 58 W/m2
12:39 9.8 °C 8.8 °C 992.1 hPa ENE 10.3 km/h 20.9 km/h 94% 0 mm 47 W/m2
12:44 9.8 °C 8.9 °C 992.1 hPa ENE 3.5 km/h 14.5 km/h 94% 0 mm 35 W/m2
12:49 9.8 °C 8.9 °C 992.1 hPa ENE 2.4 km/h 11.3 km/h 94% 0 mm 30 W/m2
12:54 9.8 °C 8.9 °C 992.1 hPa ENE 5.3 km/h 12.9 km/h 94% 0 mm 23 W/m2
12:59 9.8 °C 8.8 °C 992.1 hPa ESE 2.9 km/h 8 km/h 94% 0 mm 18 W/m2
13:04 9.7 °C 8.8 °C 992.4 hPa East 6 km/h 11.3 km/h 94% 0 mm 16 W/m2
13:09 9.7 °C 8.8 °C 992.4 hPa East 6.4 km/h 12.9 km/h 94% 0 mm 26 W/m2
13:14 9.7 °C 8.8 °C 992.4 hPa ENE 2.9 km/h 12.9 km/h 94% 0 mm 28 W/m2
13:19 9.7 °C 8.8 °C 992.4 hPa ENE 6.8 km/h 14.5 km/h 94% 0 mm 21 W/m2
13:24 9.7 °C 8.8 °C 992.4 hPa ENE 6.3 km/h 14.5 km/h 94% 0 mm 16 W/m2
13:29 9.7 °C 8.8 °C 992.4 hPa East 7.1 km/h 14.5 km/h 94% 0 mm 12 W/m2
13:34 9.7 °C 8.8 °C 992.4 hPa NE 2.9 km/h 14.5 km/h 94% 0 mm 16 W/m2
13:39 9.7 °C 8.8 °C 992.8 hPa ENE 10.8 km/h 16.1 km/h 94% 0 mm 18 W/m2
13:44 9.7 °C 8.8 °C 992.4 hPa ENE 2.9 km/h 16.1 km/h 94% 0 mm 19 W/m2
13:49 9.7 °C 8.8 °C 992.8 hPa NE 5.6 km/h 12.9 km/h 94% 0 mm 26 W/m2
13:54 9.7 °C 8.8 °C 992.8 hPa ENE 5.8 km/h 11.3 km/h 94% 0.25 mm 26 W/m2
13:59 9.7 °C 8.8 °C 992.8 hPa ENE 5.8 km/h 16.1 km/h 94% 0.25 mm 23 W/m2
14:04 9.8 °C 8.8 °C 992.8 hPa East 4 km/h 12.9 km/h 94% 0.25 mm 21 W/m2
14:09 9.8 °C 8.9 °C 992.8 hPa ENE 11.3 km/h 16.1 km/h 94% 0.25 mm 23 W/m2
14:14 9.8 °C 8.9 °C 992.8 hPa ENE 3.7 km/h 16.1 km/h 94% 0.25 mm 19 W/m2
14:19 9.8 °C 8.9 °C 992.8 hPa ENE 5 km/h 12.9 km/h 94% 0.25 mm 16 W/m2
14:24 9.8 °C 8.9 °C 993.1 hPa NE 2.7 km/h 14.5 km/h 94.2% 0.25 mm 16 W/m2
14:29 9.7 °C 8.9 °C 993.1 hPa ENE 4.5 km/h 14.5 km/h 94.8% 0.25 mm 12 W/m2
14:34 9.7 °C 8.8 °C 993.1 hPa ENE 5.6 km/h 16.1 km/h 94.4% 0.25 mm 9 W/m2
14:39 9.7 °C 8.8 °C 993.1 hPa ENE 4.7 km/h 16.1 km/h 94% 0.25 mm 9 W/m2
14:44 9.7 °C 8.8 °C 993.1 hPa NE 10.3 km/h 16.1 km/h 94% 0.25 mm 11 W/m2
14:49 9.7 °C 8.8 °C 993.1 hPa NE 5 km/h 14.5 km/h 94% 0.25 mm 9 W/m2
14:54 9.7 °C 8.8 °C 993.5 hPa NE 3.5 km/h 14.5 km/h 94% 0.25 mm 11 W/m2
14:59 9.7 °C 8.8 °C 993.5 hPa ENE 3.4 km/h 11.3 km/h 94.2% 0 mm 9 W/m2
15:04 9.7 °C 8.9 °C 993.5 hPa NNE 4.3 km/h 12.9 km/h 95% 0 mm 9 W/m2
15:09 9.7 °C 8.9 °C 993.5 hPa ENE 5.6 km/h 12.9 km/h 95% 0 mm 9 W/m2
15:14 9.7 °C 8.9 °C 993.5 hPa NE 5.3 km/h 12.9 km/h 95% 0 mm 9 W/m2
15:19 9.7 °C 8.9 °C 993.5 hPa East 3.4 km/h 16.1 km/h 95% 0 mm 9 W/m2
15:24 9.7 °C 8.9 °C 993.5 hPa East 1.3 km/h 11.3 km/h 95% 0 mm 7 W/m2
15:29 9.7 °C 8.9 °C 993.5 hPa NE 3.4 km/h 12.9 km/h 95% 0 mm 7 W/m2
15:34 9.7 °C 8.9 °C 993.5 hPa ENE 3.2 km/h 16.1 km/h 95% 0 mm 7 W/m2
15:38 9.7 °C 8.9 °C 993.8 hPa NE 4.8 km/h 16.1 km/h 95% 0 mm 7 W/m2
15:44 9.7 °C 8.9 °C 993.8 hPa East 4.8 km/h 12.9 km/h 95% 0 mm 7 W/m2
15:49 9.7 °C 8.9 °C 993.8 hPa East 2.4 km/h 16.1 km/h 95% 0 mm 5 W/m2
15:54 9.7 °C 8.9 °C 993.8 hPa East 4 km/h 9.7 km/h 95% 0 mm 5 W/m2
15:59 9.7 °C 8.9 °C 993.8 hPa NE 4.3 km/h 11.3 km/h 95% 0 mm 0 W/m2
16:04 9.7 °C 8.9 °C 994.1 hPa ESE 4.5 km/h 11.3 km/h 95% 0 mm 0 W/m2
16:09 9.7 °C 8.9 °C 994.1 hPa ENE 5.1 km/h 17.7 km/h 95% 0 mm 0 W/m2
16:14 9.7 °C 8.9 °C 994.1 hPa NE 3.9 km/h 12.9 km/h 95% 0 mm 0 W/m2
16:18 9.7 °C 8.9 °C 994.1 hPa ENE 3.2 km/h 11.3 km/h 95% 0 mm 0 W/m2
16:24 9.7 °C 8.9 °C 994.1 hPa ENE 5.8 km/h 11.3 km/h 95% 0 mm 0 W/m2
16:29 9.7 °C 8.9 °C 994.5 hPa ESE 5.3 km/h 11.3 km/h 95% 0 mm 0 W/m2
16:34 9.7 °C 8.9 °C 994.5 hPa NE 2.6 km/h 11.3 km/h 95% 0 mm 0 W/m2
16:39 9.7 °C 8.9 °C 994.5 hPa ENE 2.6 km/h 11.3 km/h 95% 0 mm 0 W/m2
16:44 9.7 °C 8.9 °C 994.8 hPa NE 5 km/h 12.9 km/h 95% 0 mm 0 W/m2
16:49 9.7 °C 8.9 °C 994.8 hPa North 1.9 km/h 6.4 km/h 95% 0 mm 0 W/m2
16:53 9.7 °C 8.9 °C 994.8 hPa ENE 2.4 km/h 9.7 km/h 95% 0 mm 0 W/m2
16:59 9.7 °C 8.9 °C 994.8 hPa Calm   9.7 km/h 95% 0 mm 0 W/m2
17:04 9.7 °C 8.9 °C 994.8 hPa NE 4.3 km/h 8 km/h 95% 0 mm 0 W/m2
17:09 9.7 °C 8.9 °C 994.8 hPa Calm   8 km/h 95% 0 mm 0 W/m2
17:14 9.7 °C 8.9 °C 995.1 hPa Calm   1.6 km/h 95% 0 mm 0 W/m2
17:19 9.7 °C 8.9 °C 995.1 hPa North 1.3 km/h 4.8 km/h 95% 0 mm 0 W/m2
17:24 9.7 °C 8.9 °C 995.1 hPa NE 7.4 km/h 12.9 km/h 95% 0 mm 0 W/m2
17:29 9.7 °C 8.9 °C 995.5 hPa NE 1 km/h 8 km/h 95% 0.25 mm 0 W/m2
17:33 9.7 °C 8.9 °C 995.5 hPa NE 6.4 km/h 11.3 km/h 95% 0.25 mm 0 W/m2
17:39 9.7 °C 8.9 °C 995.5 hPa NNE 0.6 km/h 11.3 km/h 95% 0.51 mm 0 W/m2
17:44 9.7 °C 8.9 °C 995.5 hPa NE 5.6 km/h 11.3 km/h 95% 0.51 mm 0 W/m2
17:49 9.7 °C 8.9 °C 995.5 hPa NE 1.8 km/h 11.3 km/h 95% 0.51 mm 0 W/m2
17:54 9.7 °C 8.9 °C 995.8 hPa NE 2.1 km/h 6.4 km/h 95% 0.51 mm 0 W/m2
17:59 9.7 °C 8.9 °C 995.8 hPa NE 4.7 km/h 11.3 km/h 95% 0.51 mm 0 W/m2
18:04 9.7 °C 8.9 °C 995.8 hPa NE 3.9 km/h 8 km/h 95% 0.51 mm 0 W/m2
18:09 9.7 °C 8.9 °C 995.8 hPa NE 4.5 km/h 11.3 km/h 95% 0.51 mm 0 W/m2
18:13 9.7 °C 8.9 °C 995.8 hPa ENE 0.8 km/h 6.4 km/h 95% 0.51 mm 0 W/m2
18:19 9.7 °C 8.9 °C 995.8 hPa ENE 0.3 km/h 3.2 km/h 95% 0.51 mm 0 W/m2
18:24 9.7 °C 8.9 °C 996.2 hPa ENE 0.6 km/h 4.8 km/h 95% 0.51 mm 0 W/m2
18:29 9.7 °C 8.9 °C 996.2 hPa ENE 1.3 km/h 4.8 km/h 95% 0.51 mm 0 W/m2
18:34 9.7 °C 8.9 °C 996.2 hPa ENE 1.6 km/h 4.8 km/h 95% 0.51 mm 0 W/m2
18:39 9.7 °C 8.9 °C 996.2 hPa ENE 1.6 km/h 4.8 km/h 95% 0.25 mm 0 W/m2
18:44 9.7 °C 8.9 °C 996.2 hPa ENE 2.1 km/h 6.4 km/h 95% 0.25 mm 0 W/m2
18:49 9.7 °C 8.9 °C 996.2 hPa NE 1.3 km/h 6.4 km/h 95% 0.25 mm 0 W/m2
18:54 9.7 °C 8.9 °C 996.2 hPa NE 1.6 km/h 6.4 km/h 95% 0.25 mm 0 W/m2
18:55 9.7 °C 8.9 °C 996.2 hPa NE 3.2 km/h 4.8 km/h 95% 0.25 mm 0 W/m2
19:24 -17.8 °C -17.8 °C 0 hPa Calm     % 0 mm W/m2
19:44 9.8 °C 9 °C 996.8 hPa Calm   1.6 km/h 95% 0.25 mm 0 W/m2
19:49 9.8 °C 9 °C 996.8 hPa NE 1 km/h 3.2 km/h 95% 0.25 mm 0 W/m2
19:54 9.8 °C 9 °C 996.8 hPa Calm   3.2 km/h 95% 0.25 mm 0 W/m2
19:59 9.7 °C 8.9 °C 996.8 hPa Calm     95% 0 mm 0 W/m2
20:04 9.8 °C 9 °C 996.8 hPa NE 0.3 km/h 1.6 km/h 95% 0 mm 0 W/m2
20:09 9.7 °C 8.9 °C 996.8 hPa NE 0.3 km/h 1.6 km/h 95% 0 mm 0 W/m2
20:14 9.8 °C 9 °C 997.2 hPa Calm     95% 0 mm 0 W/m2
20:19 9.8 °C 8.9 °C 997.2 hPa NE 1.3 km/h 3.2 km/h 95% 0 mm 0 W/m2
20:24 9.7 °C 8.9 °C 997.2 hPa NE 1 km/h 3.2 km/h 95% 0 mm 0 W/m2
20:29 9.7 °C 8.8 °C 997.2 hPa NE 1.6 km/h 4.8 km/h 95% 0 mm 0 W/m2
20:34 9.6 °C 8.8 °C 997.5 hPa NNE 1.4 km/h 4.8 km/h 95% 0.25 mm 0 W/m2
20:39 9.6 °C 8.8 °C 997.5 hPa NNE 0.3 km/h 3.2 km/h 95% 0.25 mm 0 W/m2
20:44 9.6 °C 8.8 °C 997.5 hPa NNE 0.3 km/h 3.2 km/h 95% 0.25 mm 0 W/m2
20:49 9.6 °C 8.8 °C 997.9 hPa Calm   1.6 km/h 95% 0.25 mm 0 W/m2
20:54 9.6 °C 8.8 °C 997.9 hPa NNE 1.1 km/h 3.2 km/h 95% 0.25 mm 0 W/m2
20:59 9.6 °C 8.8 °C 997.9 hPa NNE 0.3 km/h 3.2 km/h 95% 0.25 mm 0 W/m2
21:04 9.6 °C 8.8 °C 997.9 hPa Calm     95% 0.25 mm 0 W/m2
21:09 9.6 °C 8.8 °C 997.9 hPa Calm     95% 0.51 mm 0 W/m2
21:14 9.6 °C 8.8 °C 997.9 hPa Calm     95% 0.51 mm 0 W/m2
21:19 9.6 °C 8.8 °C 997.9 hPa NNE 0.3 km/h 6.4 km/h 95% 0.76 mm 0 W/m2
21:24 9.5 °C 8.7 °C 997.9 hPa NNE 0.6 km/h 4.8 km/h 95% 0.76 mm 0 W/m2
21:29 9.5 °C 8.7 °C 997.9 hPa Calm   3.2 km/h 95% 0.76 mm 0 W/m2
21:34 9.5 °C 8.7 °C 997.9 hPa Calm     95% 0.76 mm 0 W/m2
21:39 9.5 °C 8.7 °C 997.9 hPa Calm     95% 0.76 mm 0 W/m2
21:44 9.4 °C 8.7 °C 997.9 hPa NNE 5.1 km/h 9.7 km/h 95% 0.76 mm 0 W/m2
21:49 9.4 °C 8.6 °C 998.2 hPa North 1.1 km/h 9.7 km/h 95% 0.76 mm 0 W/m2
21:54 9.4 °C 8.6 °C 998.2 hPa Calm   3.2 km/h 95% 0.76 mm 0 W/m2
21:59 9.4 °C 8.6 °C 998.2 hPa Calm   4.8 km/h 95% 1.02 mm 0 W/m2
22:04 9.4 °C 8.6 °C 998.2 hPa Calm     95% 1.02 mm 0 W/m2
22:09 9.4 °C 8.6 °C 998.2 hPa Calm     95% 0.76 mm 0 W/m2
22:14 9.4 °C 8.6 °C 998.2 hPa North 4.3 km/h 11.3 km/h 95% 0.76 mm 0 W/m2
22:19 9.4 °C 8.6 °C 998.2 hPa Calm   4.8 km/h 95% 0.51 mm 0 W/m2
22:24 9.4 °C 8.6 °C 998.2 hPa Calm     95% 0.51 mm 0 W/m2
22:29 9.4 °C 8.6 °C 998.2 hPa Calm     95% 0.51 mm 0 W/m2
22:34 9.4 °C 8.6 °C 998.2 hPa Calm     95% 0.25 mm 0 W/m2
22:39 9.4 °C 8.6 °C 998.2 hPa Calm     95% 0.25 mm 0 W/m2
22:44 9.4 °C 8.6 °C 998.5 hPa Calm     95% 0.25 mm 0 W/m2
22:49 9.4 °C 8.7 °C 998.5 hPa Calm     95.4% 0.25 mm 0 W/m2
22:54 9.5 °C 8.8 °C 998.5 hPa Calm     95.8% 0.25 mm 0 W/m2
22:59 9.4 °C 8.8 °C 998.5 hPa Calm     96% 0 mm 0 W/m2
23:04 9.4 °C 8.8 °C 998.5 hPa Calm     96% 0 mm 0 W/m2
23:09 9.4 °C 8.8 °C 998.5 hPa Calm     96% 0 mm 0 W/m2
23:14 9.4 °C 8.8 °C 998.5 hPa Calm     96% 0 mm 0 W/m2
23:19 9.4 °C 8.8 °C 998.5 hPa Calm     96% 0 mm 0 W/m2
23:24 9.4 °C 8.8 °C 998.5 hPa Calm     96% 0 mm 0 W/m2
23:29 9.4 °C 8.8 °C 998.5 hPa Calm     96% 0 mm 0 W/m2
23:34 9.4 °C 8.8 °C 998.9 hPa North 1.6 km/h 4.8 km/h 96% 0 mm 0 W/m2
23:39 9.4 °C 8.8 °C 998.9 hPa North 0.3 km/h 4.8 km/h 96% 0 mm 0 W/m2
23:44 9.4 °C 8.8 °C 998.9 hPa Calm     96% 0 mm 0 W/m2
23:49 9.4 °C 8.8 °C 999.2 hPa North 1.9 km/h 16.1 km/h 96% 0 mm 0 W/m2
23:54 9.5 °C 8.9 °C 999.2 hPa Calm     96% 0 mm 0 W/m2
23:59 9.5 °C 8.9 °C 998.9 hPa Calm     96% 0 mm 0 W/m2
Bath Spa Weather
Compliments of Weather Underground - 2 mb